Time;durP1;ratioP1;P1;durP2;ratioP2;P2;SDS_P1;SDS_P2;PMS_P1;PMS_P2;Temp;Humidity;BMP_temperature;BMP_pressure;BME280_temperature;BME280_humidity;BME280_pressure;Samples;Min_cycle;Max_cycle;Signal;HPM_P1;HPM_P2
2022/07/23 00:01:29;;;;;;;5.80;3.30;;;;;;;27.35;34.58;99583.47;5013807;28;20054;-90
2022/07/23 00:03:55;;;;;;;6.07;3.45;;;;;;;27.21;34.67;99566.28;5012309;28;20478;-90
2022/07/23 00:06:21;;;;;;;6.50;3.47;;;;;;;26.82;34.75;99523.00;5028646;28;20025;-90
2022/07/23 00:08:46;;;;;;;5.10;3.47;;;;;;;26.94;34.96;99553.25;5028627;28;20026;-90
2022/07/23 00:11:12;;;;;;;7.68;3.53;;;;;;;27.44;35.23;99621.63;5028206;28;20037;-90
2022/07/23 00:13:37;;;;;;;7.72;3.50;;;;;;;26.94;35.10;99549.72;5028708;28;20108;-90
2022/07/23 00:16:03;;;;;;;5.15;4.38;;;;;;;26.82;35.15;99521.09;5028563;28;20033;-90
2022/07/23 00:18:29;;;;;;;9.05;4.18;;;;;;;26.53;35.36;99488.56;5028551;28;20064;-90
2022/07/23 00:20:54;;;;;;;6.43;4.25;;;;;;;27.34;35.28;99616.31;5028262;28;20514;-90
2022/07/23 00:23:19;;;;;;;5.63;3.88;;;;;;;26.99;35.39;99558.63;5011994;28;20505;-90
2022/07/23 00:25:45;;;;;;;5.60;3.80;;;;;;;26.53;35.17;99504.81;5028265;28;20025;-90
2022/07/23 00:28:11;;;;;;;8.32;3.80;;;;;;;27.35;35.38;99617.91;5029011;28;20022;-90
2022/07/23 00:30:37;;;;;;;4.90;3.53;;;;;;;27.30;35.39;99615.25;5011855;28;20045;-90
2022/07/23 00:33:05;;;;;;;4.60;3.50;;;;;;;27.01;35.30;99601.72;5016287;28;20056;-90
2022/07/23 00:35:33;;;;;;;5.80;3.40;;;;;;;27.24;35.43;99619.94;5032272;28;20033;-90
2022/07/23 00:38:00;;;;;;;4.57;3.20;;;;;;;26.84;35.49;99572.28;5032160;28;20026;-91
2022/07/23 00:40:26;;;;;;;4.20;3.30;;;;;;;27.17;35.51;99612.13;5016823;28;20089;-90
2022/07/23 00:42:52;;;;;;;6.40;3.22;;;;;;;26.62;35.39;99526.69;5016758;28;20025;-90
2022/07/23 00:45:18;;;;;;;5.72;3.50;;;;;;;26.51;35.50;99508.91;5016705;28;20426;-90
2022/07/23 00:47:43;;;;;;;5.13;3.78;;;;;;;26.75;35.65;99555.00;5016878;28;20026;-90
2022/07/23 00:50:10;;;;;;;5.35;3.85;;;;;;;26.40;35.79;99497.34;5032726;28;20463;-90
2022/07/23 00:52:37;;;;;;;5.78;4.00;;;;;;;27.09;35.78;99615.47;5025959;28;20068;-90
2022/07/23 00:55:04;;;;;;;5.07;3.35;;;;;;;26.36;35.87;99500.91;5026465;28;20076;-90
2022/07/23 00:57:30;;;;;;;5.65;3.58;;;;;;;26.54;35.85;99530.00;5042284;28;20046;-90
2022/07/23 00:59:56;;;;;;;9.43;4.43;;;;;;;26.26;35.88;99483.63;5042875;28;20033;-90
2022/07/23 01:02:21;;;;;;;7.40;4.75;;;;;;;26.11;35.88;99482.91;5016891;28;20029;-90
2022/07/23 01:04:47;;;;;;;7.75;4.90;;;;;;;26.53;36.15;99572.50;5032095;28;20156;-91
2022/07/23 01:07:12;;;;;;;7.05;5.03;;;;;;;26.41;36.07;99572.06;5032136;28;20064;-90
2022/07/23 01:09:38;;;;;;;7.10;4.93;;;;;;;26.06;37.00;99561.44;5032043;28;20021;-90
2022/07/23 01:12:05;;;;;;;14.57;5.30;;;;;;;25.31;37.06;99477.63;5031923;28;20552;-90
2022/07/23 01:14:30;;;;;;;8.45;5.15;;;;;;;25.27;37.00;99490.88;5031819;28;20029;-90
2022/07/23 01:16:55;;;;;;;9.13;4.63;;;;;;;24.08;37.09;99365.47;5015314;28;20022;-90
2022/07/23 01:19:21;;;;;;;11.57;4.82;;;;;;;25.45;37.44;99529.19;5031709;28;20412;-90
2022/07/23 01:21:49;;;;;;;12.38;5.10;;;;;;;25.88;37.30;99590.72;5031361;28;20037;-90
2022/07/23 01:24:15;;;;;;;8.00;4.80;;;;;;;25.77;37.54;99602.66;5031986;28;20030;-90
2022/07/23 01:26:45;;;;;;;8.68;5.28;;;;;;;25.59;37.76;99585.13;5024182;28;20052;-90
2022/07/23 01:29:12;;;;;;;9.67;4.53;;;;;;;25.91;37.48;99622.63;5033538;28;20022;-89
2022/07/23 01:31:37;;;;;;;6.28;5.00;;;;;;;25.62;37.86;99583.75;5018415;28;20025;-90
2022/07/23 01:34:04;;;;;;;6.68;4.57;;;;;;;25.00;37.65;99496.59;5031867;28;20033;-90
2022/07/23 01:36:29;;;;;;;7.55;4.25;;;;;;;23.90;38.10;99337.16;5031356;28;20048;-90
2022/07/23 01:38:54;;;;;;;8.10;4.53;;;;;;;25.41;37.69;99601.13;5015951;28;20414;-90
2022/07/23 01:41:20;;;;;;;5.28;4.13;;;;;;;25.49;37.89;99600.56;5016169;28;20029;-90
2022/07/23 01:43:46;;;;;;;6.68;4.38;;;;;;;25.50;37.98;99597.56;5014844;28;20037;-90
2022/07/23 01:46:12;;;;;;;7.47;4.43;;;;;;;25.77;37.43;99623.47;5015579;28;20032;-89
2022/07/23 01:48:38;;;;;;;11.50;5.07;;;;;;;25.77;37.92;99629.69;5031075;28;20021;-90
2022/07/23 01:51:03;;;;;;;6.60;4.53;;;;;;;24.33;37.63;99405.13;5016171;28;20036;-90
2022/07/23 01:53:31;;;;;;;6.57;4.28;;;;;;;23.66;37.96;99326.06;5030949;28;20109;-90
2022/07/23 01:55:57;;;;;;;7.18;4.35;;;;;;;23.53;37.88;99296.13;5030829;28;20491;-90
2022/07/23 01:58:22;;;;;;;6.18;4.05;;;;;;;24.98;37.88;99544.69;5030632;28;20037;-90
2022/07/23 02:00:48;;;;;;;4.40;3.60;;;;;;;25.28;37.89;99576.28;5030617;28;20018;-90
2022/07/23 02:03:13;;;;;;;9.13;4.45;;;;;;;25.16;37.94;99559.53;5015473;28;20022;-90
2022/07/23 02:05:38;;;;;;;6.38;3.67;;;;;;;25.38;37.98;99596.25;5017314;28;20041;-90
2022/07/23 02:08:04;;;;;;;6.43;3.95;;;;;;;25.54;37.67;99614.88;5022246;28;20025;-89
2022/07/23 02:10:30;;;;;;;5.55;3.72;;;;;;;24.55;37.63;99461.53;5038036;28;20041;-90
2022/07/23 02:12:55;;;;;;;4.80;3.78;;;;;;;24.50;37.92;99465.03;5049247;28;20461;-90
2022/07/23 02:15:21;;;;;;;9.93;4.18;;;;;;;24.67;38.11;99511.47;5021984;28;20005;-90
2022/07/23 02:17:46;;;;;;;10.32;3.92;;;;;;;25.28;37.97;99594.38;5046721;28;20117;-90
2022/07/23 02:20:12;;;;;;;5.57;3.33;;;;;;;25.06;37.75;99534.41;5038931;28;20018;-91
2022/07/23 02:22:38;;;;;;;7.65;3.42;;;;;;;25.27;37.65;99598.97;5042721;28;20513;-90
2022/07/23 02:25:05;;;;;;;4.70;3.58;;;;;;;24.87;37.77;99523.34;5027264;28;20029;-91
2022/07/23 02:27:31;;;;;;;5.78;3.22;;;;;;;25.16;37.80;99569.53;5020198;28;20040;-90
2022/07/23 02:29:57;;;;;;;4.90;3.30;;;;;;;24.99;37.98;99550.91;5019921;28;20045;-90
2022/07/23 02:32:23;;;;;;;6.13;3.05;;;;;;;25.04;37.84;99575.22;5019473;28;20030;-90
2022/07/23 02:34:49;;;;;;;8.10;3.67;;;;;;;24.71;37.84;99534.16;5015794;28;20073;-90
2022/07/23 02:37:14;;;;;;;5.97;3.38;;;;;;;24.26;37.87;99488.22;5014829;28;20025;-89
2022/07/23 02:39:40;;;;;;;7.22;3.53;;;;;;;24.80;38.12;99583.03;5014755;28;20091;-90
2022/07/23 02:42:06;;;;;;;7.53;3.42;;;;;;;24.90;37.96;99607.34;5030159;28;20550;-90
2022/07/23 02:44:31;;;;;;;5.40;3.58;;;;;;;24.65;37.79;99566.81;5014909;28;20026;-90
2022/07/23 02:46:57;;;;;;;5.35;3.53;;;;;;;25.18;37.62;99629.50;5029873;28;20022;-90
2022/07/23 02:49:23;;;;;;;4.63;3.45;;;;;;;25.03;37.85;99641.13;5030163;28;20021;-90
2022/07/23 02:51:48;;;;;;;7.47;3.15;;;;;;;25.28;37.47;99651.94;5039717;28;20022;-89
2022/07/23 02:54:14;;;;;;;4.72;3.00;;;;;;;24.48;37.83;99536.56;5041473;28;20513;-90
2022/07/23 02:56:39;;;;;;;5.10;3.17;;;;;;;24.57;37.93;99570.06;5034861;28;20081;-89
2022/07/23 02:59:05;;;;;;;5.75;3.10;;;;;;;25.05;37.91;99662.47;5029551;28;20121;-90
2022/07/23 03:01:30;;;;;;;7.13;3.20;;;;;;;24.97;37.94;99640.31;5014256;28;20033;-90
2022/07/23 03:03:55;;;;;;;3.70;3.28;;;;;;;23.44;38.41;99469.09;5014133;28;20021;-90
2022/07/23 03:06:21;;;;;;;8.85;3.60;;;;;;;24.57;38.35;99635.66;5029413;28;20037;-90
2022/07/23 03:08:47;;;;;;;5.88;3.42;;;;;;;24.59;38.52;99636.22;5029661;28;20495;-90
2022/07/23 03:11:12;;;;;;;6.93;3.10;;;;;;;23.95;38.52;99546.69;5012974;28;20407;-90
2022/07/23 03:13:38;;;;;;;7.43;3.58;;;;;;;24.37;38.83;99643.69;5029498;28;20092;-90
2022/07/23 03:16:04;;;;;;;13.10;3.90;;;;;;;23.76;38.95;99551.72;5029750;28;20053;-90
2022/07/23 03:18:29;;;;;;;7.55;3.65;;;;;;;24.12;38.95;99614.72;5029458;28;20600;-90
2022/07/23 03:20:55;;;;;;;9.07;3.50;;;;;;;22.30;39.32;99383.63;5013949;28;20028;-89
2022/07/23 03:23:20;;;;;;;6.60;3.88;;;;;;;22.69;39.18;99386.84;5013908;28;20423;-90
2022/07/23 03:25:49;;;;;;;6.15;3.22;;;;;;;24.46;39.19;99674.47;5029222;28;20495;-90
2022/07/23 03:28:15;;;;;;;7.68;2.70;;;;;;;24.39;39.22;99666.63;5013846;28;20021;-89
2022/07/23 03:30:48;;;;;;;6.10;3.83;;;;;;;24.07;39.02;99629.00;5029433;28;20079;-90
2022/07/23 03:33:16;;;;;;;6.40;3.30;;;;;;;24.12;39.57;99654.38;5029391;28;20029;-90
2022/07/23 03:35:42;;;;;;;5.13;3.00;;;;;;;24.28;39.17;99664.97;5014132;28;20076;-90
2022/07/23 03:38:07;;;;;;;10.63;3.35;;;;;;;23.73;39.33;99577.34;5013523;28;20458;-90
2022/07/23 03:40:33;;;;;;;5.50;3.05;;;;;;;23.82;39.43;99588.44;5029340;28;20079;-90
2022/07/23 03:42:58;;;;;;;4.85;3.17;;;;;;;23.75;39.51;99583.28;5012722;28;20021;-90
2022/07/23 03:45:23;;;;;;;6.40;3.55;;;;;;;23.37;39.58;99535.91;5029144;28;20021;-90
2022/07/23 03:47:49;;;;;;;4.20;3.20;;;;;;;24.24;39.65;99685.44;5028841;28;20020;-90
2022/07/23 03:50:14;;;;;;;6.32;3.30;;;;;;;23.64;39.46;99554.66;5028977;28;20026;-90
2022/07/23 03:52:40;;;;;;;4.18;3.28;;;;;;;24.15;39.17;99633.06;5028952;28;20026;-90
2022/07/23 03:55:06;;;;;;;4.72;3.40;;;;;;;24.09;39.48;99626.84;5014384;28;20018;-90
2022/07/23 03:57:31;;;;;;;5.55;3.55;;;;;;;24.33;39.43;99656.91;5020444;28;20092;-90
2022/07/23 03:59:57;;;;;;;6.70;3.40;;;;;;;23.60;39.57;99564.34;5029351;28;20026;-90
2022/07/23 04:02:22;;;;;;;6.22;3.72;;;;;;;23.97;39.43;99620.06;5021700;28;20492;-90
2022/07/23 04:04:48;;;;;;;5.70;5.03;;;;;;;23.46;39.56;99541.59;5033474;28;20033;-90
2022/07/23 04:07:17;;;;;;;6.53;4.97;;;;;;;24.18;39.63;99670.31;5028208;28;20478;-90
2022/07/23 04:09:42;;;;;;;5.65;3.95;;;;;;;23.56;39.60;99562.44;5013314;28;20014;-90
2022/07/23 04:12:08;;;;;;;6.10;3.75;;;;;;;23.80;39.76;99617.56;5013146;28;20030;-90
2022/07/23 04:14:33;;;;;;;10.05;4.60;;;;;;;23.88;39.74;99611.66;5012991;28;20104;-90
2022/07/23 04:16:59;;;;;;;7.53;4.15;;;;;;;23.87;39.65;99585.78;5013101;28;20061;-90
2022/07/23 04:19:25;;;;;;;8.32;4.05;;;;;;;24.22;39.69;99649.81;5028583;28;20026;-90
2022/07/23 04:21:51;;;;;;;9.18;4.10;;;;;;;24.52;39.56;99680.69;5013236;28;20030;-90
2022/07/23 04:24:16;;;;;;;7.82;4.28;;;;;;;23.94;39.58;99575.56;5011943;28;20037;-90
2022/07/23 04:26:42;;;;;;;8.05;4.05;;;;;;;24.26;39.35;99617.72;5028359;28;20026;-90
2022/07/23 04:29:07;;;;;;;6.45;4.15;;;;;;;24.69;39.57;99692.91;5013200;28;20033;-90
2022/07/23 04:31:32;;;;;;;7.35;4.22;;;;;;;24.02;39.78;99563.44;5013004;28;20026;-90
2022/07/23 04:33:58;;;;;;;5.95;3.95;;;;;;;24.04;39.75;99575.59;5012985;28;20060;-90
2022/07/23 04:36:23;;;;;;;7.03;4.25;;;;;;;23.75;39.60;99525.84;5013307;28;20025;-90
2022/07/23 04:38:49;;;;;;;8.63;4.30;;;;;;;24.23;39.45;99581.28;5011784;28;20057;-90
2022/07/23 04:41:14;;;;;;;7.70;4.75;;;;;;;24.80;39.43;99664.03;5012835;28;20032;-91
2022/07/23 04:43:39;;;;;;;8.05;4.50;;;;;;;24.15;39.67;99572.91;5011683;28;20383;-90
2022/07/23 04:46:05;;;;;;;8.57;4.70;;;;;;;24.97;39.58;99697.03;5028058;28;20064;-90
2022/07/23 04:48:31;;;;;;;6.32;4.30;;;;;;;24.32;39.64;99570.81;5028335;28;20026;-89
2022/07/23 04:50:56;;;;;;;8.07;4.93;;;;;;;24.75;39.81;99638.94;5012676;28;20026;-90
2022/07/23 04:53:22;;;;;;;10.48;5.43;;;;;;;24.54;39.66;99619.19;5028262;28;20026;-90
2022/07/23 04:55:48;;;;;;;7.22;4.78;;;;;;;24.49;39.42;99560.59;5028038;28;20033;-90
2022/07/23 04:58:13;;;;;;;8.90;5.70;;;;;;;24.87;39.33;99625.97;5012407;28;20045;-90
2022/07/23 05:00:39;;;;;;;9.05;5.35;;;;;;;24.93;39.61;99652.72;5012523;28;20514;-90
2022/07/23 05:03:04;;;;;;;8.23;5.88;;;;;;;25.02;39.77;99650.31;5028046;28;20037;-90
2022/07/23 05:05:29;;;;;;;8.40;5.80;;;;;;;25.17;39.66;99666.53;5012598;28;20025;-90
2022/07/23 05:07:55;;;;;;;7.00;5.18;;;;;;;24.51;39.56;99563.00;5012661;28;20532;-90
2022/07/23 05:10:20;;;;;;;10.50;5.30;;;;;;;25.18;39.64;99654.63;5012627;28;20392;-90
2022/07/23 05:12:46;;;;;;;8.68;5.07;;;;;;;25.27;39.44;99633.31;5028014;28;20116;-90
2022/07/23 05:15:11;;;;;;;8.95;5.70;;;;;;;24.89;39.33;99557.09;5027879;28;20018;-90
2022/07/23 05:17:36;;;;;;;9.05;6.00;;;;;;;25.17;38.98;99593.56;5029036;28;20121;-90
2022/07/23 05:20:02;;;;;;;8.23;6.15;;;;;;;24.02;39.27;99412.41;5016109;28;20109;-90
2022/07/23 05:22:28;;;;;;;11.13;5.97;;;;;;;25.81;38.87;99681.34;5031552;28;20513;-89
2022/07/23 05:24:54;;;;;;;8.65;5.85;;;;;;;25.28;38.99;99610.59;5016129;28;20022;-90
2022/07/23 05:27:19;;;;;;;10.52;5.82;;;;;;;25.85;39.04;99687.84;5016298;28;20029;-90
2022/07/23 05:29:44;;;;;;;6.55;5.43;;;;;;;25.01;38.75;99564.94;5016260;28;20026;-90
2022/07/23 05:32:10;;;;;;;10.15;5.20;;;;;;;26.00;38.49;99695.91;5031314;28;20030;-89
2022/07/23 05:34:35;;;;;;;7.90;5.82;;;;;;;25.40;38.56;99597.59;5031730;28;20109;-90
2022/07/23 05:37:00;;;;;;;10.02;5.95;;;;;;;25.47;38.46;99587.31;5031566;28;20026;-90
2022/07/23 05:39:26;;;;;;;6.80;5.10;;;;;;;25.74;38.65;99624.84;5031659;28;20213;-90
2022/07/23 05:41:51;;;;;;;9.32;5.85;;;;;;;25.56;38.49;99591.06;5031597;28;20081;-90
2022/07/23 05:44:17;;;;;;;11.50;6.25;;;;;;;26.32;38.34;99692.81;5031632;28;20037;-90
2022/07/23 05:46:42;;;;;;;9.60;6.47;;;;;;;26.01;38.34;99645.31;5020244;28;20018;-90
2022/07/23 05:49:08;;;;;;;8.90;6.43;;;;;;;26.08;38.13;99643.94;5046077;28;20018;-90
2022/07/23 05:51:33;;;;;;;9.32;6.25;;;;;;;26.51;38.07;99688.44;5023954;28;20021;-90
2022/07/23 05:53:59;;;;;;;9.25;6.47;;;;;;;25.88;37.84;99584.50;5035274;28;20022;-90
2022/07/23 05:56:24;;;;;;;9.98;6.65;;;;;;;26.27;37.84;99622.47;5032359;28;20434;-90
2022/07/23 05:58:50;;;;;;;6.68;5.70;;;;;;;26.46;37.71;99661.38;5016310;28;20026;-90
2022/07/23 06:01:15;;;;;;;7.82;5.75;;;;;;;26.20;37.62;99635.50;5016059;28;20032;-90
2022/07/23 06:03:40;;;;;;;8.75;6.03;;;;;;;26.66;37.37;99673.97;5031254;28;20029;-91
2022/07/23 06:06:06;;;;;;;11.15;6.75;;;;;;;26.39;37.40;99627.56;5015033;28;20026;-90
2022/07/23 06:08:32;;;;;;;9.30;6.00;;;;;;;25.85;37.21;99525.53;5016195;28;20548;-90
2022/07/23 06:10:57;;;;;;;8.02;5.88;;;;;;;26.92;37.01;99689.00;5015825;28;20022;-91
2022/07/23 06:13:22;;;;;;;9.70;5.80;;;;;;;26.45;37.01;99608.31;5031250;28;20113;-90
2022/07/23 06:15:48;;;;;;;14.52;6.80;;;;;;;26.68;37.16;99623.03;5031279;28;20032;-90
2022/07/23 06:18:13;;;;;;;8.82;6.28;;;;;;;26.34;36.95;99560.75;5016043;28;20053;-90
2022/07/23 06:20:39;;;;;;;7.20;6.47;;;;;;;26.55;36.49;99589.28;5037252;28;20025;-89
2022/07/23 06:23:04;;;;;;;8.50;6.05;;;;;;;26.62;36.39;99569.19;5026674;28;20029;-91
2022/07/23 06:25:30;;;;;;;11.38;6.40;;;;;;;27.10;35.97;99641.47;5041275;28;20029;-90
2022/07/23 06:27:55;;;;;;;8.40;5.82;;;;;;;27.52;35.79;99676.06;5042692;28;20010;-89
2022/07/23 06:30:21;;;;;;;8.27;6.30;;;;;;;27.52;35.80;99683.41;5032194;28;20564;-90
2022/07/23 06:32:47;;;;;;;6.90;6.00;;;;;;;27.09;35.18;99591.06;5014873;28;20505;-90
2022/07/23 06:35:13;;;;;;;8.27;6.05;;;;;;;27.29;35.19;99614.44;5030441;28;20025;-90
2022/07/23 06:37:38;;;;;;;9.02;6.35;;;;;;;27.63;34.96;99632.59;5030420;28;20021;-90
2022/07/23 06:40:04;;;;;;;10.43;5.43;;;;;;;27.60;34.75;99628.53;5014811;28;20041;-90
2022/07/23 06:42:30;;;;;;;9.73;6.78;;;;;;;27.26;34.70;99568.13;5029963;28;20033;-90
2022/07/23 06:44:55;;;;;;;8.20;5.53;;;;;;;27.53;34.52;99592.81;5029990;28;20034;-90
2022/07/23 06:47:20;;;;;;;9.60;6.22;;;;;;;26.67;34.38;99445.38;5029832;28;20034;-90
2022/07/23 06:49:46;;;;;;;7.65;5.78;;;;;;;27.90;34.25;99615.72;5014305;28;20038;-90
2022/07/23 06:52:11;;;;;;;7.57;5.35;;;;;;;28.01;34.04;99631.59;5029995;28;20113;-89
2022/07/23 06:54:37;;;;;;;7.88;5.43;;;;;;;28.34;33.94;99689.59;5014693;28;20101;-90
2022/07/23 06:57:02;;;;;;;8.07;6.28;;;;;;;28.20;34.07;99647.91;5014445;28;20054;-91
2022/07/23 06:59:28;;;;;;;9.27;5.50;;;;;;;27.48;33.69;99514.19;5030299;28;20018;-90
2022/07/23 07:01:53;;;;;;;7.18;5.35;;;;;;;28.02;33.66;99584.34;5014489;28;20028;-90
2022/07/23 07:04:19;;;;;;;8.48;5.43;;;;;;;28.65;33.40;99670.16;5029694;28;20026;-90
2022/07/23 07:06:44;;;;;;;8.85;5.30;;;;;;;27.96;33.42;99565.72;5014127;28;20028;-90
2022/07/23 07:09:10;;;;;;;8.88;4.80;;;;;;;28.38;33.37;99611.88;5029955;28;20495;-90
2022/07/23 07:11:35;;;;;;;7.18;4.93;;;;;;;28.77;32.98;99663.19;5029472;28;20026;-90
2022/07/23 07:14:00;;;;;;;8.15;5.00;;;;;;;28.32;33.03;99576.94;5029445;28;20053;-90
2022/07/23 07:16:26;;;;;;;7.10;4.50;;;;;;;28.13;32.95;99538.88;5029675;28;20166;-90
2022/07/23 07:18:51;;;;;;;6.32;4.90;;;;;;;28.00;32.39;99490.75;5029639;28;20029;-90
2022/07/23 07:21:17;;;;;;;8.23;5.10;;;;;;;28.46;32.68;99583.25;5029786;28;20108;-89
2022/07/23 07:23:42;;;;;;;7.25;4.70;;;;;;;28.65;32.34;99580.50;5029862;28;20021;-90
2022/07/23 07:26:08;;;;;;;6.63;4.32;;;;;;;29.18;32.19;99650.91;5029601;28;20495;-90
2022/07/23 07:28:33;;;;;;;9.32;5.18;;;;;;;29.31;32.06;99644.69;5029540;28;20112;-90
2022/07/23 07:30:58;;;;;;;6.47;4.30;;;;;;;28.97;31.90;99583.25;5029681;28;20029;-90
2022/07/23 07:33:24;;;;;;;4.75;4.28;;;;;;;28.90;31.87;99560.28;5012937;28;20045;-89
2022/07/23 07:35:49;;;;;;;5.93;4.15;;;;;;;27.44;31.63;99328.75;5030215;28;20022;-90
2022/07/23 07:38:15;;;;;;;6.20;4.93;;;;;;;28.76;31.42;99514.81;5040385;28;20048;-91
2022/07/23 07:40:40;;;;;;;6.90;4.78;;;;;;;29.12;31.77;99540.63;5033184;28;20081;-90
2022/07/23 07:43:06;;;;;;;8.45;4.65;;;;;;;29.18;31.51;99544.84;5033458;28;20026;-89
2022/07/23 07:45:31;;;;;;;6.15;4.25;;;;;;;29.22;31.50;99540.41;5050714;28;20022;-89
2022/07/23 07:47:57;;;;;;;7.43;4.32;;;;;;;29.60;31.29;99579.97;5042130;28;20048;-90
2022/07/23 07:50:23;;;;;;;5.70;4.75;;;;;;;29.69;31.46;99597.19;5013962;28;20021;-89
2022/07/23 07:52:48;;;;;;;6.93;4.68;;;;;;;29.92;31.49;99603.53;5014304;28;20057;-90
2022/07/23 07:55:14;;;;;;;6.72;4.43;;;;;;;29.73;31.58;99551.97;5014333;28;20104;-90
2022/07/23 07:57:40;;;;;;;5.80;4.15;;;;;;;29.75;31.14;99539.97;5014703;28;20046;-90
2022/07/23 08:00:07;;;;;;;7.78;4.93;;;;;;;30.25;30.56;99597.97;5013679;28;20037;-90
2022/07/23 08:02:53;;;;;;;4.80;3.97;;;;;;;30.51;30.42;99628.19;5029186;28;20076;-90
2022/07/23 08:05:23;;;;;;;5.68;4.10;;;;;;;30.29;30.62;99596.25;5013476;28;20022;-90
2022/07/23 08:07:49;;;;;;;7.93;4.57;;;;;;;30.67;30.47;99624.03;5013651;28;20413;-90
2022/07/23 08:10:15;;;;;;;6.35;4.40;;;;;;;30.75;30.25;99628.72;5013521;28;20335;-89
2022/07/23 08:12:46;;;;;;;6.10;4.63;;;;;;;30.54;30.54;99589.41;5012624;28;20025;-89
2022/07/23 08:15:12;;;;;;;;;;;;;;;30.69;30.55;99621.78;5013815;28;20037;-90
2022/07/23 08:17:37;;;;;;;6.30;4.50;;;;;;;30.91;30.85;99623.72;5013363;28;20008;-90
2022/07/23 08:20:07;;;;;;;7.10;4.65;;;;;;;31.05;30.66;99620.91;5011959;28;20053;-90
2022/07/23 08:22:49;;;;;;;9.82;5.00;;;;;;;31.17;30.55;99613.00;5013067;28;20497;-90
2022/07/23 08:25:19;;;;;;;6.93;4.40;;;;;;;31.14;30.45;99606.19;5028550;28;20422;-90
2022/07/23 08:27:45;;;;;;;5.25;4.43;;;;;;;30.75;30.28;99516.16;5013477;28;20487;-90
2022/07/23 08:30:10;;;;;;;8.20;5.00;;;;;;;31.49;30.00;99615.41;5013473;28;20049;-90
2022/07/23 08:32:49;;;;;;;5.93;4.40;;;;;;;31.34;29.43;99569.44;5013237;28;20417;-90
2022/07/23 08:35:15;;;;;;;8.45;4.70;;;;;;;31.69;29.45;99616.78;5012988;28;20026;-90
2022/07/23 08:37:40;;;;;;;9.10;4.78;;;;;;;31.46;29.05;99561.47;5011864;28;20033;-90
2022/07/23 08:40:06;;;;;;;6.40;4.15;;;;;;;31.90;28.70;99615.09;5028151;28;20037;-90
2022/07/23 08:42:35;;;;;;;4.63;4.00;;;;;;;31.49;28.53;99555.38;5028118;28;20117;-89
2022/07/23 08:45:02;;;;;;;7.60;4.03;;;;;;;31.22;28.50;99490.13;5028298;28;20026;-90
2022/07/23 08:47:29;;;;;;;7.95;4.15;;;;;;;30.54;27.86;99350.44;5011881;28;20037;-90
2022/07/23 08:49:56;;;;;;;6.55;4.38;;;;;;;31.85;27.81;99554.38;5012959;28;20018;-90
2022/07/23 08:52:22;;;;;;;7.20;4.35;;;;;;;32.30;27.70;99585.00;5012485;28;20034;-89
2022/07/23 08:54:48;;;;;;;6.03;4.63;;;;;;;32.45;27.54;99597.38;5032136;28;20053;-90
2022/07/23 08:57:14;;;;;;;5.45;4.30;;;;;;;32.39;27.53;99582.28;5032080;28;20050;-89
2022/07/23 08:59:40;;;;;;;8.35;4.80;;;;;;;31.86;27.53;99493.97;5031464;28;20021;-90
2022/07/23 09:02:06;;;;;;;5.88;4.13;;;;;;;32.34;27.50;99525.84;5032084;28;20105;-89
2022/07/23 09:04:31;;;;;;;6.65;4.53;;;;;;;32.90;27.58;99576.00;5031580;28;20527;-89
2022/07/23 09:06:57;;;;;;;7.75;4.95;;;;;;;32.35;27.54;99461.88;5016062;28;20422;-90
2022/07/23 09:09:25;;;;;;;6.60;4.72;;;;;;;33.22;27.23;99566.41;5031565;28;20026;-89
2022/07/23 09:12:09;;;;;;;7.22;4.53;;;;;;;33.48;27.16;99586.31;5016069;28;20026;-88
2022/07/23 09:14:37;;;;;;;5.35;4.80;;;;;;;33.63;26.72;99584.16;5015994;28;20088;-89
2022/07/23 09:17:40;;;;;;;6.22;4.80;;;;;;;33.82;26.63;99581.81;5016018;28;20467;-89
2022/07/23 09:20:10;;;;;;;6.88;4.70;;;;;;;34.02;26.17;99582.97;5005728;28;20030;-89
2022/07/23 09:22:36;;;;;;;7.40;4.30;;;;;;;33.71;26.07;99499.22;5016729;28;20572;-89
2022/07/23 09:25:04;;;;;;;7.72;5.25;;;;;;;34.38;25.79;99568.72;5017777;28;20264;-89
2022/07/23 09:27:56;;;;;;;7.43;4.68;;;;;;;34.59;25.81;99560.47;5031167;28;20025;-89
2022/07/23 09:30:23;;;;;;;6.57;4.38;;;;;;;34.72;24.82;99565.66;5040377;28;20060;-90
2022/07/23 09:33:08;;;;;;;7.95;4.60;;;;;;;34.92;24.33;99569.50;5016718;28;20109;-89
2022/07/23 09:35:50;;;;;;;7.00;4.40;;;;;;;35.08;23.92;99561.44;5016250;28;20030;-90
2022/07/23 09:38:16;;;;;;;5.45;4.00;;;;;;;35.14;24.61;99549.09;5015012;28;20022;-89
2022/07/23 09:40:41;;;;;;;7.05;4.55;;;;;;;35.15;24.36;99511.50;5016403;28;20432;-89
2022/07/23 09:43:07;;;;;;;5.72;4.75;;;;;;;35.24;23.67;99512.97;5031323;28;20029;-89
2022/07/23 09:45:32;;;;;;;5.90;4.30;;;;;;;35.23;23.64;99461.97;5031335;28;21042;-90
2022/07/23 09:48:12;;;;;;;9.02;4.70;;;;;;;35.63;23.35;99495.00;5014691;28;20033;-89
2022/07/23 09:50:38;;;;;;;6.03;3.72;;;;;;;36.11;22.85;99542.00;5015753;28;20542;-89
2022/07/23 09:53:04;;;;;;;28.95;4.68;;;;;;;36.40;22.17;99554.66;5031080;28;20116;-89
2022/07/23 09:55:38;;;;;;;7.78;3.95;;;;;;;36.33;22.03;99505.75;5014138;28;20129;-89
2022/07/23 09:58:06;;;;;;;6.30;4.10;;;;;;;35.94;21.46;99427.66;5015149;28;20502;-90
2022/07/23 10:00:33;;;;;;;8.85;3.67;;;;;;;36.90;20.88;99548.59;5030894;28;20026;-89
2022/07/23 10:03:01;;;;;;;5.05;3.78;;;;;;;37.01;20.48;99562.63;5014850;28;20022;-89
2022/07/23 10:05:28;;;;;;;7.22;3.38;;;;;;;37.00;20.36;99515.03;5013343;28;20026;-89
2022/07/23 10:07:54;;;;;;;6.30;3.90;;;;;;;37.32;20.12;99537.91;5015053;28;20025;-89
2022/07/23 10:10:22;;;;;;;6.40;4.05;;;;;;;37.47;19.87;99539.84;5014623;28;20025;-89
2022/07/23 10:15:16;;;;;;;5.13;3.60;;;;;;;37.29;19.90;99500.06;5015214;28;20026;-89
2022/07/23 10:17:41;;;;;;;5.72;3.78;;;;;;;37.10;19.75;99442.94;5014926;28;20040;-90
2022/07/23 10:20:07;;;;;;;5.07;3.88;;;;;;;37.85;19.55;99525.38;5030190;28;20017;-89
2022/07/23 10:22:40;;;;;;;6.07;3.42;;;;;;;37.84;19.45;99498.97;5030341;28;20032;-89
2022/07/23 10:25:17;;;;;;;5.03;3.88;;;;;;;38.19;19.42;99520.22;5029720;28;20029;-89
2022/07/23 10:27:51;;;;;;;8.27;3.85;;;;;;;37.92;19.33;99463.31;5014660;28;20030;-89
2022/07/23 10:30:16;;;;;;;5.72;4.00;;;;;;;38.32;18.98;99515.38;5014444;28;20429;-89
2022/07/23 10:33:15;;;;;;;6.70;4.03;;;;;;;38.44;18.75;99513.25;5013200;28;20037;-89
2022/07/23 10:36:07;;;;;;;7.88;4.03;;;;;;;38.67;18.11;99507.81;5014574;28;20026;-88
2022/07/23 10:39:05;;;;;;;6.15;4.25;;;;;;;38.88;18.87;99507.38;5014770;28;20025;-89
2022/07/23 10:41:40;;;;;;;6.45;4.07;;;;;;;38.47;18.17;99406.88;5009085;28;20183;-89
2022/07/23 10:44:10;;;;;;;6.72;4.65;;;;;;;39.09;17.99;99493.16;5014056;28;20033;-89
2022/07/23 10:46:55;;;;;;;8.87;4.37;;;;;;;39.18;17.60;99487.38;5013779;28;20421;-89
2022/07/23 10:49:24;;;;;;;7.78;3.85;;;;;;;38.83;17.98;99407.53;5013114;28;20771;-89
2022/07/23 10:52:25;;;;;;;6.00;3.90;;;;;;;39.48;17.42;99482.72;5029302;28;20030;-88
2022/07/23 10:55:01;;;;;;;5.78;3.65;;;;;;;39.39;17.49;99438.81;5013626;28;20084;-88
2022/07/23 10:57:27;;;;;;;5.78;4.13;;;;;;;39.28;17.72;99407.44;5013661;28;20181;-89
2022/07/23 11:00:08;;;;;;;5.47;3.78;;;;;;;40.01;17.44;99469.66;5028941;28;20026;-89
2022/07/23 11:02:34;;;;;;;6.10;4.30;;;;;;;39.63;17.62;99406.38;5013884;28;20109;-89
2022/07/23 11:05:04;;;;;;;5.93;4.00;;;;;;;40.09;17.09;99453.94;5014005;28;20494;-89
2022/07/23 11:07:29;;;;;;;7.00;3.60;;;;;;;40.28;16.92;99459.31;5013920;28;20078;-89
2022/07/23 11:09:57;;;;;;;7.85;3.65;;;;;;;40.19;17.01;99456.06;5013710;28;20029;-89
2022/07/23 11:12:23;;;;;;;7.85;3.72;;;;;;;40.37;16.85;99449.94;5016483;28;20029;-89
2022/07/23 11:15:07;;;;;;;7.25;3.90;;;;;;;40.37;16.44;99449.94;5024515;28;20048;-88
2022/07/23 11:17:39;;;;;;;8.52;3.83;;;;;;;40.50;16.63;99449.28;5022307;28;20077;-89
2022/07/23 11:20:07;;;;;;;5.15;3.80;;;;;;;40.65;16.72;99452.97;5012812;28;20387;-90
2022/07/23 11:22:37;;;;;;;6.47;3.88;;;;;;;40.55;16.42;99426.00;5013314;28;20522;-89
2022/07/23 11:25:04;;;;;;;6.70;3.78;;;;;;;40.78;16.16;99445.19;5013419;28;20025;-89
2022/07/23 11:27:39;;;;;;;6.60;4.20;;;;;;;40.97;16.34;99445.00;5028227;28;20030;-89
2022/07/23 11:30:06;;;;;;;7.82;4.18;;;;;;;40.70;16.17;99416.63;5028687;28;20085;-88
2022/07/23 11:32:38;;;;;;;8.23;3.72;;;;;;;40.81;16.06;99405.69;5012482;28;20025;-89
2022/07/23 11:35:20;;;;;;;8.15;4.18;;;;;;;41.02;15.84;99443.84;5013129;28;20104;-89
2022/07/23 11:37:46;;;;;;;6.80;4.20;;;;;;;41.17;16.06;99451.06;5028186;28;20045;-89